createdAt,value
2019-02-22T00:02:24.696Z,49.40
2019-02-22T00:04:54.961Z,48.73
2019-02-22T00:07:25.797Z,47.97
2019-02-22T00:09:56.340Z,49.70
2019-02-22T00:12:26.901Z,49.00
2019-02-22T00:14:57.874Z,48.73
2019-02-22T00:17:28.969Z,50.30
2019-02-22T00:19:58.777Z,49.83
2019-02-22T00:22:28.558Z,48.07
2019-02-22T00:24:59.259Z,49.53
2019-02-22T00:27:28.553Z,49.57
2019-02-22T00:29:58.253Z,49.07
2019-02-22T00:32:28.850Z,47.67
2019-02-22T00:35:00.832Z,48.00
2019-02-22T00:37:31.844Z,48.33
2019-02-22T00:40:02.678Z,49.43
2019-02-22T00:42:33.666Z,48.03
2019-02-22T00:45:03.577Z,48.77
2019-02-22T00:47:35.830Z,48.23
2019-02-22T00:50:07.214Z,48.73
2019-02-22T00:52:37.954Z,48.83
2019-02-22T00:55:07.705Z,49.33
2019-02-22T00:57:39.337Z,47.30
2019-02-22T01:00:10.329Z,50.23
2019-02-22T01:02:42.465Z,48.50
2019-02-22T01:05:14.866Z,49.40
2019-02-22T01:07:46.068Z,49.00
2019-02-22T01:10:17.205Z,49.10
2019-02-22T01:12:48.357Z,48.60
2019-02-22T01:15:19.117Z,47.90
2019-02-22T01:17:50.731Z,47.27
2019-02-22T01:20:21.871Z,48.57
2019-02-22T01:22:52.602Z,49.03
2019-02-22T01:25:22.491Z,49.37
2019-02-22T01:27:52.211Z,47.93
2019-02-22T01:30:23.274Z,47.23
2019-02-22T01:32:54.410Z,48.90
2019-02-22T01:35:25.580Z,49.47
2019-02-22T01:37:57.553Z,50.13
2019-02-22T01:40:40.473Z,49.57
2019-02-22T01:43:03.378Z,49.63
2019-02-22T01:45:35.233Z,48.27
2019-02-22T01:48:05.949Z,46.27
2019-02-22T01:50:37.898Z,47.00
2019-02-22T01:53:08.679Z,48.77
2019-02-22T01:55:39.284Z,46.77
2019-02-22T01:58:10.805Z,46.80
2019-02-22T02:00:41.564Z,46.80
2019-02-22T02:03:12.683Z,47.73
2019-02-22T02:05:44.544Z,46.00
2019-02-22T02:08:15.389Z,47.57
2019-02-22T02:10:54.235Z,46.53
2019-02-22T02:13:21.934Z,46.80
2019-02-22T02:15:53.567Z,47.30
2019-02-22T02:18:24.619Z,46.83
2019-02-22T02:20:54.557Z,46.13
2019-02-22T02:23:25.929Z,45.80
2019-02-22T02:25:55.749Z,46.60
2019-02-22T02:28:28.346Z,47.77
2019-02-22T02:30:58.715Z,46.73
2019-02-22T02:33:28.607Z,44.73
2019-02-22T02:35:59.247Z,47.53
2019-02-22T02:38:29.408Z,47.47
2019-02-22T02:41:08.373Z,46.47
2019-02-22T02:43:34.742Z,47.33
2019-02-22T02:46:05.574Z,45.67
2019-02-22T02:48:37.342Z,48.17
2019-02-22T02:51:07.099Z,45.70
2019-02-22T02:53:37.726Z,49.10
2019-02-22T02:56:07.485Z,47.90
2019-02-22T02:58:37.227Z,47.33
2019-02-22T03:01:08.280Z,48.23
2019-02-22T03:03:38.276Z,48.33
2019-02-22T03:06:13.519Z,50.67
2019-02-22T03:08:45.176Z,49.67
2019-02-22T03:11:20.690Z,50.93
2019-02-22T03:13:48.668Z,49.33
2019-02-22T03:16:18.910Z,49.03
2019-02-22T03:18:49.689Z,50.07
2019-02-22T03:21:20.416Z,49.67
2019-02-22T03:23:50.209Z,51.17
2019-02-22T03:26:21.880Z,52.63
2019-02-22T03:28:52.972Z,53.83
2019-02-22T03:31:22.373Z,52.33
2019-02-22T03:33:53.067Z,53.23
2019-02-22T03:36:22.848Z,55.03
2019-02-22T03:38:55.573Z,54.77
2019-02-22T03:41:33.036Z,54.43
2019-02-22T03:43:59.200Z,53.33
2019-02-22T03:46:29.380Z,54.30
2019-02-22T03:49:00.209Z,54.10
2019-02-22T03:51:30.989Z,53.23
2019-02-22T03:54:00.800Z,54.87
2019-02-22T03:56:31.526Z,53.43
2019-02-22T03:59:01.389Z,54.23
2019-02-22T04:01:31.193Z,54.40
2019-02-22T04:04:01.284Z,54.40
2019-02-22T04:06:31.366Z,52.93
2019-02-22T04:09:03.750Z,54.03
2019-02-22T04:11:45.030Z,53.67
2019-02-22T04:14:07.832Z,51.80
2019-02-22T04:16:37.695Z,52.30
2019-02-22T04:19:08.267Z,52.93
2019-02-22T04:21:38.393Z,52.23
2019-02-22T04:24:08.295Z,56.03
2019-02-22T04:26:37.857Z,55.10
2019-02-22T04:29:08.602Z,55.67
2019-02-22T04:31:38.752Z,55.10
2019-02-22T04:34:10.930Z,58.20
2019-02-22T04:36:42.917Z,56.53
2019-02-22T04:39:15.750Z,56.27
2019-02-22T04:41:57.426Z,59.63
2019-02-22T04:44:17.517Z,58.87
2019-02-22T04:46:48.499Z,62.47
2019-02-22T04:49:19.313Z,61.20
2019-02-22T04:51:50.283Z,65.40
2019-02-22T04:54:21.485Z,65.33
2019-02-22T04:56:53.304Z,65.03
2019-02-22T04:59:24.346Z,62.97
2019-02-22T05:01:55.560Z,62.73
2019-02-22T05:04:26.667Z,65.37
2019-02-22T05:06:57.185Z,64.73
2019-02-22T05:09:28.313Z,64.77
2019-02-22T05:12:10.033Z,58.43
2019-02-22T05:14:31.571Z,57.30
2019-02-22T05:17:02.567Z,52.90
2019-02-22T05:22:22.434Z,49.30
2019-02-22T05:24:52.389Z,48.67
2019-02-22T05:27:23.431Z,49.00
2019-02-22T05:29:54.536Z,49.20
2019-02-22T05:32:25.994Z,48.63
2019-02-22T05:34:59.682Z,48.00
2019-02-22T05:37:30.723Z,47.80
2019-02-22T05:40:01.541Z,48.73
2019-02-22T05:42:35.404Z,48.13
2019-02-22T05:45:08.035Z,47.70
2019-02-22T05:47:39.817Z,47.53
2019-02-22T05:50:09.619Z,46.40
2019-02-22T05:52:40.575Z,47.40
2019-02-22T05:55:11.751Z,49.30
2019-02-22T05:57:41.435Z,49.40
2019-02-22T06:00:12.562Z,49.70
2019-02-22T06:02:44.241Z,52.90
2019-02-22T06:05:14.328Z,51.90
2019-02-22T06:07:44.522Z,53.43
2019-02-22T06:10:14.848Z,52.33
2019-02-22T06:12:45.666Z,51.70
2019-02-22T06:15:16.292Z,50.73
2019-02-22T06:17:45.534Z,47.90
2019-02-22T06:20:15.319Z,47.60
2019-02-22T06:22:46.320Z,46.77
2019-02-22T06:25:17.154Z,46.43
2019-02-22T06:27:46.966Z,45.43
2019-02-22T06:30:16.201Z,45.47
2019-02-22T06:32:46.014Z,47.23
2019-02-22T06:38:05.923Z,46.23
2019-02-22T06:40:36.715Z,47.00
2019-02-22T06:43:07.690Z,46.33
2019-02-22T06:45:39.442Z,46.37
2019-02-22T06:48:09.301Z,45.27
2019-02-22T06:50:40.010Z,45.67
2019-02-22T06:53:10.102Z,46.63
2019-02-22T06:55:41.891Z,48.13
2019-02-22T06:58:12.098Z,47.70
2019-02-22T07:00:42.362Z,46.83
2019-02-22T07:03:13.421Z,45.50
2019-02-22T07:05:43.298Z,45.33
2019-02-22T07:08:15.573Z,47.10
2019-02-22T07:11:02.954Z,46.17
2019-02-22T07:13:33.951Z,44.30
2019-02-22T07:16:03.952Z,45.10
2019-02-22T07:18:33.695Z,45.10
2019-02-22T07:21:03.767Z,44.10
2019-02-22T07:23:34.885Z,44.90
2019-02-22T07:26:05.778Z,44.87
2019-02-22T07:28:38.784Z,41.63
2019-02-22T07:31:09.881Z,42.57
2019-02-22T07:33:42.894Z,43.97
2019-02-22T07:36:13.933Z,41.00
2019-02-22T07:38:43.945Z,41.03
2019-02-22T07:41:16.370Z,40.63
2019-02-22T07:43:47.115Z,41.63
2019-02-22T07:46:17.018Z,40.27
2019-02-22T07:48:48.070Z,39.10
2019-02-22T07:51:18.210Z,39.67
2019-02-22T07:53:48.063Z,39.60
2019-02-22T07:56:19.396Z,38.90
2019-02-22T07:58:49.281Z,40.37
2019-02-22T08:01:19.357Z,39.17
2019-02-22T08:03:49.506Z,39.10
2019-02-22T08:06:22.367Z,39.80
2019-02-22T08:08:52.462Z,39.00
2019-02-22T08:11:22.621Z,39.67
2019-02-22T08:13:52.520Z,38.87
2019-02-22T08:16:22.333Z,39.13
2019-02-22T08:19:00.891Z,40.43
2019-02-22T08:21:24.495Z,41.33
2019-02-22T08:23:54.286Z,40.60
2019-02-22T08:26:24.834Z,40.93
2019-02-22T08:28:56.221Z,40.07
2019-02-22T08:31:27.051Z,41.60
2019-02-22T08:33:57.234Z,39.33
2019-02-22T08:36:31.017Z,41.23
2019-02-22T08:39:01.294Z,39.03
2019-02-22T08:41:33.138Z,40.17
2019-02-22T08:44:04.181Z,38.30
2019-02-22T08:46:35.054Z,37.40
2019-02-22T08:49:05.734Z,38.60
2019-02-22T08:51:38.546Z,37.03
2019-02-22T08:54:09.213Z,37.93
2019-02-22T08:56:39.354Z,36.27
2019-02-22T08:59:09.554Z,38.13
2019-02-22T09:01:40.714Z,37.27
2019-02-22T09:04:10.553Z,37.73
2019-02-22T09:06:43.342Z,37.57
2019-02-22T09:09:14.506Z,36.70
2019-02-22T09:11:45.652Z,38.27
2019-02-22T09:14:16.544Z,36.60
2019-02-22T09:16:49.904Z,38.40
2019-02-22T09:19:19.664Z,37.40
2019-02-22T09:21:51.246Z,37.23
2019-02-22T09:24:22.200Z,38.27
2019-02-22T09:26:53.013Z,38.07
2019-02-22T09:29:23.735Z,41.10
2019-02-22T09:31:55.581Z,39.73
2019-02-22T09:34:26.713Z,38.23
2019-02-22T09:36:59.622Z,40.67
2019-02-22T09:39:30.465Z,40.67
2019-02-22T09:42:01.092Z,40.63
2019-02-22T09:44:32.130Z,42.70
2019-02-22T09:47:03.043Z,40.90
2019-02-22T09:49:33.998Z,43.07
2019-02-22T09:52:05.777Z,37.83
2019-02-22T09:54:38.569Z,43.97
2019-02-22T09:57:09.063Z,42.87
2019-02-22T09:59:39.138Z,41.37
2019-02-22T10:02:10.298Z,45.60
2019-02-22T10:04:41.979Z,44.50
2019-02-22T10:07:14.321Z,44.60
2019-02-22T10:09:46.749Z,43.87
2019-02-22T10:12:16.210Z,41.57
2019-02-22T10:14:46.378Z,42.00
2019-02-22T10:17:18.304Z,42.90
2019-02-22T10:19:48.135Z,40.53
2019-02-22T10:22:21.271Z,40.07
2019-02-22T10:24:51.147Z,41.20
2019-02-22T10:27:22.303Z,40.67
2019-02-22T10:29:53.967Z,40.73
2019-02-22T10:32:25.883Z,40.43
2019-02-22T10:34:56.844Z,41.57
2019-02-22T10:37:26.594Z,42.10
2019-02-22T10:39:58.755Z,41.13
2019-02-22T10:42:31.074Z,38.73
2019-02-22T10:45:01.405Z,35.50
2019-02-22T10:47:32.216Z,36.57
2019-02-22T10:50:03.886Z,35.80
2019-02-22T10:52:36.079Z,34.40
2019-02-22T10:55:09.635Z,34.97
2019-02-22T10:57:40.437Z,33.67
2019-02-22T11:00:15.909Z,34.33
2019-02-22T11:02:45.025Z,32.97
2019-02-22T11:05:14.935Z,31.87
2019-02-22T11:07:44.716Z,30.87
2019-02-22T11:10:15.765Z,31.27
2019-02-22T11:12:45.958Z,30.10
2019-02-22T11:15:16.738Z,29.00
2019-02-22T11:17:47.445Z,24.90
2019-02-22T11:20:17.702Z,23.83
2019-02-22T11:22:50.557Z,25.07
2019-02-22T11:25:20.306Z,23.30
2019-02-22T11:27:50.085Z,23.73
2019-02-22T11:30:20.722Z,20.30
2019-02-22T11:32:51.419Z,15.93
2019-02-22T11:35:23.570Z,12.57
2019-02-22T11:37:55.567Z,12.73
2019-02-22T11:40:28.395Z,13.50
2019-02-22T11:42:59.615Z,11.13
2019-02-22T11:45:29.403Z,14.20
2019-02-22T11:48:08.752Z,14.23
2019-02-22T11:50:31.896Z,17.73
2019-02-22T11:53:03.018Z,16.07
2019-02-22T11:55:33.792Z,15.67
2019-02-22T11:58:06.682Z,14.17
2019-02-22T12:00:36.429Z,14.17
2019-02-22T12:03:21.290Z,14.87
2019-02-22T12:05:39.564Z,15.33
2019-02-22T12:08:10.712Z,14.27
2019-02-22T12:10:41.995Z,15.63
2019-02-22T12:13:11.118Z,15.03
2019-02-22T12:15:41.670Z,16.40
2019-02-22T12:18:13.263Z,15.23
2019-02-22T12:20:44.999Z,15.53
2019-02-22T12:23:16.865Z,15.07
2019-02-22T12:25:47.192Z,14.93
2019-02-22T12:28:16.955Z,15.20
2019-02-22T12:30:48.532Z,14.53
2019-02-22T12:33:20.454Z,15.33
2019-02-22T12:35:51.585Z,15.60
2019-02-22T12:38:23.176Z,14.87
2019-02-22T12:40:53.158Z,14.80
2019-02-22T12:43:25.052Z,14.87
2019-02-22T12:45:55.221Z,15.10
2019-02-22T12:48:26.372Z,15.30
2019-02-22T12:50:56.249Z,14.77
2019-02-22T12:53:26.021Z,15.30
2019-02-22T12:55:56.633Z,14.20
2019-02-22T12:58:27.253Z,14.00
2019-02-22T13:00:57.962Z,14.50
2019-02-22T13:03:29.035Z,14.43
2019-02-22T13:05:58.990Z,13.23
2019-02-22T13:08:29.699Z,13.40
2019-02-22T13:11:03.679Z,13.10
2019-02-22T13:13:33.436Z,13.00
2019-02-22T13:16:07.625Z,12.53
2019-02-22T13:18:39.294Z,10.70
2019-02-22T13:21:10.206Z,10.30
2019-02-22T13:23:40.104Z,8.37
2019-02-22T13:26:10.261Z,8.30
2019-02-22T13:28:40.469Z,7.73
2019-02-22T13:31:13.095Z,7.80
2019-02-22T13:33:44.016Z,7.90
2019-02-22T13:36:15.858Z,7.20
2019-02-22T13:38:46.586Z,8.07
2019-02-22T13:41:16.156Z,7.97
2019-02-22T13:43:47.919Z,7.70
2019-02-22T13:46:18.669Z,7.60
2019-02-22T13:48:48.745Z,7.60
2019-02-22T13:51:21.150Z,7.43
2019-02-22T13:53:51.033Z,8.00
2019-02-22T13:56:29.718Z,7.47
2019-02-22T13:58:55.278Z,7.50
2019-02-22T14:01:26.269Z,7.13
2019-02-22T14:03:57.650Z,7.43
2019-02-22T14:06:28.757Z,6.73
2019-02-22T14:09:08.768Z,7.00
2019-02-22T14:11:41.093Z,7.40
2019-02-22T14:14:10.961Z,7.20
2019-02-22T14:16:41.002Z,7.93
2019-02-22T14:19:10.313Z,7.57
2019-02-22T14:21:41.270Z,7.90
2019-02-22T14:24:12.925Z,8.40
2019-02-22T14:26:43.007Z,11.37
2019-02-22T14:29:13.173Z,11.93
2019-02-22T14:31:44.255Z,12.17
2019-02-22T14:34:15.069Z,11.70
2019-02-22T14:36:45.335Z,12.23
2019-02-22T14:39:15.622Z,12.13
2019-02-22T14:41:45.829Z,11.67
2019-02-22T14:44:16.661Z,11.90
2019-02-22T14:46:46.745Z,12.50
2019-02-22T14:49:16.953Z,14.67
2019-02-22T14:51:47.668Z,13.70
2019-02-22T14:54:17.358Z,12.63
2019-02-22T14:56:47.133Z,13.20
2019-02-22T14:59:16.914Z,12.87
2019-02-22T15:01:50.357Z,16.33
2019-02-22T15:04:21.107Z,18.10
2019-02-22T15:06:52.214Z,17.47
2019-02-22T15:09:23.021Z,16.67
2019-02-22T15:11:52.754Z,15.60
2019-02-22T15:14:24.346Z,15.50
2019-02-22T15:17:02.794Z,15.53
2019-02-22T15:19:32.554Z,15.20
2019-02-22T15:22:02.267Z,14.23
2019-02-22T15:24:33.070Z,14.20
2019-02-22T15:27:03.024Z,13.37
2019-02-22T15:29:33.813Z,13.37
2019-02-22T15:32:04.462Z,13.70
2019-02-22T15:34:36.034Z,14.50
2019-02-22T15:37:07.177Z,13.23
2019-02-22T15:39:38.349Z,12.00
2019-02-22T15:42:08.226Z,11.70
2019-02-22T15:44:37.996Z,11.73
2019-02-22T15:47:11.774Z,11.73
2019-02-22T15:49:40.301Z,11.17
2019-02-22T15:52:10.402Z,11.70
2019-02-22T15:54:41.367Z,11.93
2019-02-22T15:57:12.242Z,12.30
2019-02-22T15:59:42.001Z,12.07
2019-02-22T16:02:12.078Z,13.03
2019-02-22T16:04:46.583Z,12.27
2019-02-22T16:07:17.786Z,12.67
2019-02-22T16:09:48.629Z,12.50
2019-02-22T16:12:19.643Z,11.77
2019-02-22T16:14:50.478Z,12.07
2019-02-22T16:17:21.136Z,12.53
2019-02-22T16:19:51.620Z,12.27
2019-02-22T16:22:23.049Z,12.43
2019-02-22T16:24:54.818Z,12.63
2019-02-22T16:27:27.018Z,13.07
2019-02-22T16:29:59.549Z,12.73
2019-02-22T16:32:30.509Z,12.47
2019-02-22T16:35:02.694Z,13.10
2019-02-22T16:37:32.594Z,12.93
2019-02-22T16:40:06.041Z,12.80
2019-02-22T16:42:38.449Z,12.40
2019-02-22T16:45:10.310Z,12.27
2019-02-22T16:47:42.049Z,12.93
2019-02-22T16:50:13.326Z,12.70
2019-02-22T16:52:45.328Z,12.73
2019-02-22T16:55:17.359Z,13.73
2019-02-22T16:57:47.985Z,12.87
2019-02-22T17:00:18.714Z,13.03
2019-02-22T17:02:51.083Z,13.63
2019-02-22T17:05:24.103Z,13.67
2019-02-22T17:07:58.186Z,14.10
2019-02-22T17:10:29.101Z,14.53
2019-02-22T17:13:02.852Z,14.63
2019-02-22T17:15:33.781Z,14.20
2019-02-22T17:18:06.277Z,13.80
2019-02-22T17:20:37.393Z,14.53
2019-02-22T17:23:08.213Z,13.77
2019-02-22T17:25:38.817Z,14.53
2019-02-22T17:28:09.431Z,14.43
2019-02-22T17:30:40.462Z,13.27
2019-02-22T17:33:11.322Z,14.17
2019-02-22T17:35:43.283Z,13.87
2019-02-22T17:38:16.402Z,14.17
2019-02-22T17:40:49.417Z,13.27
2019-02-22T17:43:21.193Z,13.70
2019-02-22T17:45:51.357Z,14.30
2019-02-22T17:48:21.146Z,13.77
2019-02-22T17:50:51.958Z,14.53
2019-02-22T17:53:22.677Z,14.20
2019-02-22T17:55:54.141Z,14.67
2019-02-22T17:58:25.157Z,14.33
2019-02-22T18:00:55.059Z,14.33
2019-02-22T18:03:25.137Z,14.37
2019-02-22T18:05:56.364Z,14.83
2019-02-22T18:08:27.237Z,14.87
2019-02-22T18:10:57.400Z,15.07
2019-02-22T18:13:28.046Z,14.40
2019-02-22T18:16:00.069Z,12.73
2019-02-22T18:18:30.287Z,12.97
2019-02-22T18:21:01.518Z,13.10
2019-02-22T18:23:32.367Z,13.67
2019-02-22T18:26:04.147Z,14.00
2019-02-22T18:28:33.905Z,12.93
2019-02-22T18:31:04.397Z,12.30
2019-02-22T18:33:35.162Z,12.63
2019-02-22T18:36:04.917Z,12.80
2019-02-22T18:38:34.689Z,12.63
2019-02-22T18:41:05.802Z,13.27
2019-02-22T18:43:35.486Z,12.50
2019-02-22T18:46:06.325Z,12.43
2019-02-22T18:48:37.342Z,12.90
2019-02-22T18:51:09.833Z,12.50
2019-02-22T18:53:41.821Z,12.73
2019-02-22T18:56:12.565Z,11.70
2019-02-22T18:58:44.227Z,12.83
2019-02-22T19:01:15.221Z,12.37
2019-02-22T19:03:48.997Z,11.70
2019-02-22T19:06:22.706Z,12.70
2019-02-22T19:08:53.850Z,11.80
2019-02-22T19:11:24.645Z,12.60
2019-02-22T19:13:54.766Z,13.20
2019-02-22T19:16:26.350Z,13.37
2019-02-22T19:18:56.223Z,13.07
2019-02-22T19:21:25.935Z,13.43
2019-02-22T19:23:57.710Z,13.97
2019-02-22T19:26:30.635Z,14.03
2019-02-22T19:29:04.505Z,15.50
2019-02-22T19:31:34.928Z,15.87
2019-02-22T19:34:05.781Z,17.03
2019-02-22T19:36:35.944Z,17.23
2019-02-22T19:39:09.033Z,19.30
2019-02-22T19:41:41.282Z,20.73
2019-02-22T19:44:12.286Z,20.20
2019-02-22T19:46:42.185Z,21.10
2019-02-22T19:49:13.322Z,20.70
2019-02-22T19:51:45.101Z,22.80
2019-02-22T19:54:15.986Z,22.23
2019-02-22T19:56:47.065Z,23.53
2019-02-22T19:59:20.175Z,24.70
2019-02-22T20:01:52.151Z,23.57
2019-02-22T20:04:23.194Z,24.10
2019-02-22T20:06:54.005Z,24.27
2019-02-22T20:09:24.168Z,23.60
2019-02-22T20:11:54.358Z,24.83
2019-02-22T20:14:26.082Z,24.53
2019-02-22T20:16:56.166Z,24.73
2019-02-22T20:19:27.353Z,24.53
2019-02-22T20:21:58.901Z,24.47
2019-02-22T20:24:30.115Z,26.13
2019-02-22T20:27:00.006Z,25.13
2019-02-22T20:29:30.082Z,24.60
2019-02-22T20:32:02.149Z,24.57
2019-02-22T20:34:34.007Z,24.43
2019-02-22T20:37:06.509Z,24.53
2019-02-22T20:39:39.046Z,24.20
2019-02-22T20:42:09.260Z,24.47
2019-02-22T20:44:39.470Z,23.37
2019-02-22T20:47:10.947Z,25.20
2019-02-22T20:49:42.025Z,24.33
2019-02-22T20:52:11.938Z,26.00
2019-02-22T20:54:42.957Z,25.00
2019-02-22T20:57:18.418Z,25.33
2019-02-22T20:59:49.214Z,24.00
2019-02-22T21:02:20.137Z,25.67
2019-02-22T21:04:52.204Z,24.83
2019-02-22T21:07:23.298Z,23.97
2019-02-22T21:09:55.856Z,25.30
2019-02-22T21:12:25.936Z,24.87
2019-02-22T21:14:57.833Z,25.33
2019-02-22T21:17:28.545Z,23.93
2019-02-22T21:19:59.118Z,24.37
2019-02-22T21:22:30.090Z,23.73
2019-02-22T21:25:01.841Z,24.77
2019-02-22T21:27:31.909Z,23.40
2019-02-22T21:30:04.015Z,23.77
2019-02-22T21:32:34.025Z,23.97
2019-02-22T21:35:03.727Z,23.70
2019-02-22T21:37:34.482Z,23.20
2019-02-22T21:40:05.951Z,24.07
2019-02-22T21:42:38.411Z,23.37
2019-02-22T21:45:11.552Z,23.60
2019-02-22T21:47:53.669Z,23.13
2019-02-22T21:50:15.107Z,23.03
2019-02-22T21:52:46.198Z,24.47
2019-02-22T21:55:16.927Z,23.30
2019-02-22T21:57:47.895Z,22.90
2019-02-22T22:00:27.146Z,23.27
2019-02-22T22:02:58.686Z,23.10
2019-02-22T22:05:29.518Z,22.10
2019-02-22T22:08:00.238Z,22.03
2019-02-22T22:10:30.957Z,23.00
2019-02-22T22:13:00.737Z,22.57
2019-02-22T22:15:30.892Z,22.67
2019-02-22T22:18:01.546Z,23.50
2019-02-22T22:20:32.499Z,22.27
2019-02-22T22:23:04.174Z,23.63
2019-02-22T22:25:36.771Z,21.47
2019-02-22T22:28:09.247Z,24.20
2019-02-22T22:30:40.406Z,21.50
2019-02-22T22:33:11.154Z,21.40
2019-02-22T22:35:41.282Z,22.23
2019-02-22T22:38:13.166Z,22.10
2019-02-22T22:40:44.309Z,21.97
2019-02-22T22:43:18.067Z,20.90
2019-02-22T22:45:48.857Z,21.40
2019-02-22T22:48:18.597Z,20.53
2019-02-22T22:50:48.418Z,20.50
2019-02-22T22:53:17.481Z,21.53
2019-02-22T22:55:46.473Z,19.93
2019-02-22T22:58:16.103Z,20.53
2019-02-22T23:00:53.579Z,21.10
2019-02-22T23:03:23.588Z,20.50
2019-02-22T23:05:54.330Z,21.37
2019-02-22T23:08:25.033Z,20.77
2019-02-22T23:10:55.979Z,21.47
2019-02-22T23:13:27.170Z,21.03
2019-02-22T23:15:58.313Z,20.37
2019-02-22T23:18:29.033Z,19.33
2019-02-22T23:21:00.085Z,20.60
2019-02-22T23:23:30.113Z,20.17
2019-02-22T23:26:02.557Z,20.43
2019-02-22T23:28:33.482Z,19.97
2019-02-22T23:31:03.562Z,19.60
2019-02-22T23:33:32.955Z,19.67
2019-02-22T23:36:03.963Z,20.50
2019-02-22T23:38:35.001Z,20.43
2019-02-22T23:41:05.103Z,19.40
2019-02-22T23:43:35.845Z,19.47
2019-02-22T23:46:05.546Z,19.37
2019-02-22T23:48:38.069Z,20.47
2019-02-22T23:51:09.108Z,19.97
2019-02-22T23:53:39.019Z,19.93
2019-02-22T23:56:09.966Z,18.93
2019-02-22T23:58:40.043Z,19.67
